Time;durP1;ratioP1;P1;durP2;ratioP2;P2;SDS_P1;SDS_P2;PMS_P1;PMS_P2;Temp;Humidity;BMP_temperature;BMP_pressure;BME280_temperature;BME280_humidity;BME280_pressure;Samples;Min_cycle;Max_cycle;Signal;HPM_P1;HPM_P2
2021/12/06 00:00:40;;;;;;;58.23;32.37;;;6.70;99.90;;;;;;10406786;28;20250;-81
2021/12/06 00:05:43;;;;;;;41.93;26.40;;;4.90;99.90;;;;;;10385748;28;20248;-81
2021/12/06 00:10:50;;;;;;;50.63;29.37;;;7.20;99.90;;;;;;10367040;28;20282;-82
2021/12/06 00:15:54;;;;;;;32.47;20.37;;;3.60;99.90;;;;;;10397171;28;20252;-82
2021/12/06 00:20:57;;;;;;;35.27;21.43;;;6.90;99.90;;;;;;10366291;28;20717;-82
2021/12/06 00:26:00;;;;;;;43.37;27.40;;;8.40;99.90;;;;;;10393554;28;20738;-82
2021/12/06 00:31:03;;;;;;;31.67;21.23;;;9.00;99.90;;;;;;10372088;28;20301;-82
2021/12/06 00:36:15;;;;;;;55.17;30.40;;;8.40;99.90;;;;;;10387370;28;20219;-82
2021/12/06 00:41:18;;;;;;;43.30;26.03;;;7.60;99.90;;;;;;10386863;28;20263;-82
2021/12/06 00:46:20;;;;;;;38.20;23.83;;;7.70;99.90;;;;;;10388073;28;20267;-82
2021/12/06 00:51:24;;;;;;;44.93;25.93;;;7.90;99.90;;;;;;10405831;28;20250;-82
2021/12/06 00:56:27;;;;;;;43.27;26.53;;;8.60;99.90;;;;;;10394512;28;20314;-82
2021/12/06 01:01:31;;;;;;;32.83;21.57;;;8.40;99.90;;;;;;10404162;28;20311;-82
2021/12/06 01:06:35;;;;;;;51.73;29.63;;;9.20;99.90;;;;;;10386937;28;20235;-82
2021/12/06 01:11:38;;;;;;;46.87;28.03;;;5.90;99.90;;;;;;10404089;28;20354;-82
2021/12/06 01:16:41;;;;;;;48.03;27.83;;;4.50;99.90;;;;;;10397291;28;20224;-82
2021/12/06 01:21:54;;;;;;;40.70;23.93;;;7.40;99.90;;;;;;10374931;28;20996;-82
2021/12/06 01:27:15;;;;;;;51.33;29.67;;;8.50;99.90;;;;;;10387004;28;20682;-82
2021/12/06 01:32:47;;;;;;;52.07;29.73;;;5.60;94.10;;;;;;10400294;28;20231;-82
2021/12/06 01:43:06;;;;;;;48.10;26.43;;;6.50;99.90;;;;;;10386153;28;20246;-82
2021/12/06 01:48:08;;;;;;;44.87;25.30;;;5.80;99.90;;;;;;10408976;28;20231;-82
2021/12/06 01:53:12;;;;;;;30.70;19.87;;;4.00;99.90;;;;;;10391927;28;20227;-82
2021/12/06 01:58:15;;;;;;;49.07;27.30;;;5.90;99.90;;;;;;10380796;28;20248;-82
2021/12/06 02:03:17;;;;;;;28.27;19.17;;;8.00;99.90;;;;;;10405590;28;20251;-82
2021/12/06 02:08:22;;;;;;;30.20;19.13;;;9.70;99.90;;;;;;10393627;28;20259;-82
2021/12/06 02:13:25;;;;;;;35.90;21.50;;;7.20;99.90;;;;;;10359239;28;20642;-82
2021/12/06 02:23:41;;;;;;;31.17;19.87;;;6.90;97.40;;;;;;10368658;28;20271;-82
2021/12/06 02:28:46;;;;;;;37.30;22.43;;;9.10;99.90;;;;;;10366644;28;20255;-82
2021/12/06 02:33:52;;;;;;;35.20;21.30;;;8.20;99.90;;;;;;10361520;28;20715;-82
2021/12/06 02:38:57;;;;;;;26.47;17.53;;;8.30;99.90;;;;;;10327541;28;20327;-82
2021/12/06 02:44:03;;;;;;;34.50;20.23;;;9.20;99.90;;;;;;10347020;28;20263;-82
2021/12/06 02:49:06;;;;;;;39.97;24.07;;;9.20;99.90;;;;;;10358534;28;20248;-83
2021/12/06 02:54:10;;;;;;;36.77;20.37;;;7.60;99.90;;;;;;10340716;28;20232;-82
2021/12/06 02:59:12;;;;;;;31.10;19.83;;;9.10;99.90;;;;;;10339843;28;20256;-82
2021/12/06 03:04:16;;;;;;;29.07;17.30;;;8.10;99.90;;;;;;10326707;28;20229;-82
2021/12/06 03:09:23;;;;;;;29.63;19.30;;;10.20;99.90;;;;;;10360520;28;20248;-82
2021/12/06 03:14:31;;;;;;;34.73;19.87;;;10.70;99.90;;;;;;10328079;28;20231;-82
2021/12/06 03:19:38;;;;;;;28.17;16.70;;;9.50;99.90;;;;;;10313411;28;20274;-82
2021/12/06 03:24:42;;;;;;;37.33;22.57;;;10.40;99.90;;;;;;10368206;28;20672;-82
2021/12/06 03:29:45;;;;;;;26.17;15.87;;;9.60;99.90;;;;;;10390747;28;20245;-82
2021/12/06 03:34:48;;;;;;;33.10;20.73;;;9.80;99.90;;;;;;10406552;28;20363;-82
2021/12/06 03:39:52;;;;;;;22.13;16.10;;;9.10;99.90;;;;;;10387836;28;20310;-82
2021/12/06 03:45:00;;;;;;;38.17;21.20;;;9.40;99.90;;;;;;10384319;28;20321;-82
2021/12/06 03:50:06;;;;;;;34.27;20.90;;;7.70;99.90;;;;;;10386984;28;20640;-82
2021/12/06 03:55:10;;;;;;;40.83;23.90;;;7.20;99.90;;;;;;10385774;28;20235;-82
2021/12/06 04:00:15;;;;;;;39.40;24.77;;;8.20;99.90;;;;;;10384239;28;20251;-82
2021/12/06 04:05:25;;;;;;;24.23;15.70;;;8.20;91.00;;;;;;10393894;28;20293;-82
2021/12/06 04:10:29;;;;;;;40.53;23.17;;;9.80;99.90;;;;;;10406774;28;20810;-82
2021/12/06 04:15:35;;;;;;;26.50;16.33;;;6.70;96.60;;;;;;10387416;28;20257;-82
2021/12/06 04:20:39;;;;;;;33.47;19.07;;;8.70;99.90;;;;;;10388017;28;20294;-81
2021/12/06 04:25:44;;;;;;;35.30;19.47;;;7.40;99.90;;;;;;10376432;28;20289;-82
2021/12/06 04:30:50;;;;;;;32.50;19.50;;;6.30;99.90;;;;;;10365441;28;20258;-81
2021/12/06 04:35:54;;;;;;;36.93;20.63;;;7.00;99.90;;;;;;10371764;28;20778;-81
2021/12/06 04:40:58;;;;;;;37.50;20.43;;;6.50;99.90;;;;;;10387945;28;20313;-82
2021/12/06 04:46:02;;;;;;;28.77;18.27;;;5.30;99.90;;;;;;10385870;28;20262;-82
2021/12/06 04:51:07;;;;;;;26.40;17.03;;;6.80;99.90;;;;;;10387571;28;20271;-82
2021/12/06 04:56:23;;;;;;;36.13;20.47;;;8.80;99.90;;;;;;10405407;28;20301;-82
2021/12/06 05:01:29;;;;;;;37.63;21.43;;;7.70;99.90;;;;;;10387155;28;20321;-82
2021/12/06 05:06:36;;;;;;;25.23;15.60;;;7.60;99.90;;;;;;10370546;28;20293;-82
2021/12/06 05:11:43;;;;;;;40.00;21.37;;;7.90;99.90;;;;;;10386332;28;20705;-82
2021/12/06 05:16:46;;;;;;;22.93;14.90;;;8.20;99.90;;;;;;10380788;28;20251;-82
2021/12/06 05:21:50;;;;;;;40.43;20.73;;;9.30;99.90;;;;;;10388679;28;20270;-82
2021/12/06 05:26:53;;;;;;;27.60;16.97;;;6.20;97.70;;;;;;10392549;28;20220;-82
2021/12/06 05:32:00;;;;;;;24.83;14.83;;;6.10;99.90;;;;;;10412183;28;20281;-81
2021/12/06 05:37:04;;;;;;;36.80;19.13;;;7.10;99.90;;;;;;10411096;28;20227;-82
2021/12/06 05:42:12;;;;;;;24.97;14.77;;;7.20;93.60;;;;;;10411768;28;20774;-81
2021/12/06 05:47:16;;;;;;;34.67;19.10;;;7.30;99.90;;;;;;10411594;28;20343;-82
2021/12/06 05:52:19;;;;;;;35.63;19.20;;;7.00;99.90;;;;;;10408976;28;20227;-82
2021/12/06 05:57:22;;;;;;;21.57;14.27;;;6.90;99.20;;;;;;10409709;28;20231;-82
2021/12/06 06:02:25;;;;;;;29.33;16.67;;;8.30;99.90;;;;;;10394145;28;20259;-82
2021/12/06 06:07:27;;;;;;;48.87;22.73;;;8.10;99.90;;;;;;10409794;28;20257;-82
2021/12/06 06:12:30;;;;;;;43.53;21.30;;;1.00;99.90;;;;;;10411555;28;20237;-81
2021/12/06 06:17:40;;;;;;;46.67;21.47;;;0.50;99.90;;;;;;10393165;28;20268;-80
2021/12/06 06:22:43;;;;;;;45.63;20.47;;;;;;;;;;10404611;28;20276;-86
2021/12/06 06:27:45;;;;;;;35.10;16.50;;;1.20;99.90;;;;;;10389574;28;20235;-86
2021/12/06 06:32:48;;;;;;;41.87;18.27;;;5.60;99.90;;;;;;10407189;28;20807;-86
2021/12/06 06:37:52;;;;;;;36.43;17.23;;;4.00;99.90;;;;;;10392394;28;20235;-86
2021/12/06 06:42:54;;;;;;;32.40;16.33;;;2.60;99.90;;;;;;10389344;28;20251;-86
2021/12/06 06:47:57;;;;;;;31.43;15.03;;;4.90;99.90;;;;;;10375509;28;20280;-86
2021/12/06 06:53:00;;;;;;;38.53;19.20;;;5.60;99.90;;;;;;10378819;28;20244;-86
2021/12/06 06:58:03;;;;;;;33.93;17.23;;;5.30;99.90;;;;;;10369794;28;20236;-86
2021/12/06 07:03:08;;;;;;;26.47;13.70;;;3.70;99.90;;;;;;10375574;28;20319;-86
2021/12/06 07:08:11;;;;;;;26.00;13.67;;;4.30;99.90;;;;;;10392289;28;20661;-86
2021/12/06 07:13:14;;;;;;;33.10;16.70;;;6.00;99.90;;;;;;10375595;28;20219;-87
2021/12/06 07:18:17;;;;;;;26.47;15.03;;;3.90;99.90;;;;;;10391222;28;20312;-86
2021/12/06 07:23:19;;;;;;;23.17;12.27;;;5.60;99.90;;;;;;10388930;28;20309;-86
2021/12/06 07:28:22;;;;;;;23.33;13.10;;;6.80;99.90;;;;;;10364274;28;20666;-86
2021/12/06 07:33:26;;;;;;;32.83;14.70;;;6.80;99.90;;;;;;10379246;28;20293;-87
2021/12/06 07:38:30;;;;;;;26.43;15.03;;;8.10;99.90;;;;;;10378292;28;20275;-86
2021/12/06 07:43:34;;;;;;;24.00;13.47;;;6.30;99.90;;;;;;10355015;28;20255;-86
2021/12/06 07:48:38;;;;;;;25.53;13.63;;;7.10;99.90;;;;;;10384454;28;20755;-86
2021/12/06 07:53:42;;;;;;;23.17;14.17;;;7.20;99.90;;;;;;10395032;28;20219;-86
2021/12/06 07:58:46;;;;;;;21.80;12.87;;;7.30;99.90;;;;;;10407273;28;20242;-86
2021/12/06 08:03:48;;;;;;;20.63;11.83;;;7.60;99.90;;;;;;10377472;28;20293;-86
2021/12/06 08:08:51;;;;;;;28.03;13.63;;;8.20;99.90;;;;;;10380664;28;20235;-86
2021/12/06 08:13:54;;;;;;;31.77;16.47;;;7.60;99.90;;;;;;10400205;28;20227;-86
2021/12/06 08:18:59;;;;;;;29.30;15.33;;;6.50;96.70;;;;;;10394999;28;20338;-86
2021/12/06 08:24:02;;;;;;;31.53;16.47;;;5.20;98.10;;;;;;10382160;28;20267;-86
2021/12/06 08:29:06;;;;;;;30.53;17.23;;;4.20;98.80;;;;;;10404328;28;20239;-86
2021/12/06 08:34:09;;;;;;;29.10;15.57;;;2.70;99.90;;;;;;10401029;28;20224;-86
2021/12/06 08:39:13;;;;;;;22.13;13.13;;;5.10;99.90;;;;;;10384437;28;20228;-86
2021/12/06 08:44:16;;;;;;;28.53;14.50;;;6.70;99.90;;;;;;10389308;28;20684;-86
2021/12/06 08:49:19;;;;;;;19.63;11.30;;;5.40;99.90;;;;;;10381127;28;20305;-86
2021/12/06 08:54:26;;;;;;;22.70;11.53;;;8.30;99.90;;;;;;10405363;28;20327;-86
2021/12/06 08:59:29;;;;;;;23.43;14.03;;;9.30;99.90;;;;;;10410707;28;20236;-86
2021/12/06 09:04:37;;;;;;;28.03;14.60;;;7.70;99.90;;;;;;10387488;28;20301;-87
2021/12/06 09:09:49;;;;;;;32.13;16.13;;;6.70;94.60;;;;;;10351609;28;20228;-87
2021/12/06 09:14:54;;;;;;;29.13;16.17;;;8.00;99.90;;;;;;10376350;28;20297;-87
2021/12/06 09:19:56;;;;;;;15.70;9.20;;;7.20;92.30;;;;;;10404990;28;20340;-87
2021/12/06 09:24:59;;;;;;;23.47;14.90;;;8.90;99.90;;;;;;10387833;28;20281;-87
2021/12/06 09:30:04;;;;;;;27.27;15.43;;;8.40;99.90;;;;;;10402263;28;20223;-87
2021/12/06 09:35:10;;;;;;;17.90;10.43;;;7.10;94.80;;;;;;10402768;28;20242;-87
2021/12/06 09:40:15;;;;;;;18.13;9.90;;;6.00;99.90;;;;;;10389224;28;20256;-86
2021/12/06 09:45:22;;;;;;;16.03;9.73;;;8.20;99.90;;;;;;10381997;28;20231;-86
2021/12/06 09:50:38;;;;;;;28.83;14.50;;;9.50;99.90;;;;;;10375089;28;20227;-87
2021/12/06 09:55:42;;;;;;;21.93;10.23;;;7.10;99.90;;;;;;10384363;28;20751;-86
2021/12/06 10:00:50;;;;;;;20.37;10.93;;;6.20;99.90;;;;;;10367216;28;20271;-86
2021/12/06 10:05:57;;;;;;;20.70;12.60;;;7.30;99.90;;;;;;10352678;28;20248;-87
2021/12/06 10:11:01;;;;;;;28.73;15.90;;;7.40;99.90;;;;;;10353977;28;21032;-86
2021/12/06 10:16:04;;;;;;;23.33;12.80;;;5.10;99.90;;;;;;10375459;28;20258;-86
2021/12/06 10:21:08;;;;;;;23.90;13.80;;;5.70;99.90;;;;;;10407581;28;20266;-87
2021/12/06 10:26:13;;;;;;;33.80;16.83;;;5.80;99.90;;;;;;10409829;28;20669;-86
2021/12/06 10:31:16;;;;;;;28.83;15.57;;;5.00;99.90;;;;;;10390675;28;20227;-86
2021/12/06 10:36:19;;;;;;;23.00;13.27;;;4.90;99.60;;;;;;10400192;28;20277;-86
2021/12/06 10:41:25;;;;;;;29.20;16.57;;;5.50;99.90;;;;;;10405964;28;20278;-86
2021/12/06 10:46:28;;;;;;;23.63;13.97;;;5.10;99.90;;;;;;10380161;28;20302;-87
2021/12/06 10:57:50;;;;;;;29.83;16.23;;;5.00;99.90;;;;;;10398886;28;20223;-86
2021/12/06 11:02:54;;;;;;;25.07;13.87;;;5.80;99.90;;;;;;10371609;28;20305;-87
2021/12/06 11:08:10;;;;;;;22.73;13.03;;;6.20;99.90;;;;;;10395216;28;20219;-86
2021/12/06 11:13:17;;;;;;;22.37;12.30;;;6.20;99.90;;;;;;10382681;28;20219;-86
2021/12/06 11:18:38;;;;;;;28.27;16.13;;;7.90;99.90;;;;;;10389923;28;20716;-86
2021/12/06 11:23:59;;;;;;;20.13;11.93;;;8.10;99.90;;;;;;10405693;28;20317;-87
2021/12/06 11:29:15;;;;;;;19.57;11.47;;;7.50;99.90;;;;;;10391150;28;20285;-86
2021/12/06 11:34:18;;;;;;;26.17;14.57;;;7.10;99.90;;;;;;10387818;28;20226;-86
2021/12/06 11:39:27;;;;;;;20.60;13.57;;;6.50;94.80;;;;;;10398511;28;20289;-86
2021/12/06 11:44:34;;;;;;;23.87;14.97;;;6.90;99.90;;;;;;10419434;28;20227;-86
2021/12/06 11:49:43;;;;;;;13.47;8.87;;;4.50;93.80;;;;;;10390873;28;20247;-86
2021/12/06 11:54:53;;;;;;;13.07;8.93;;;6.10;99.90;;;;;;10380671;28;20232;-87
2021/12/06 12:00:18;;;;;;;15.77;9.83;;;7.30;99.90;;;;;;10398567;28;20239;-87
2021/12/06 12:05:25;;;;;;;20.20;12.77;;;8.60;99.90;;;;;;10393407;28;20277;-86
2021/12/06 12:10:29;;;;;;;16.73;10.70;;;7.10;99.90;;;;;;10411668;28;20592;-86
2021/12/06 12:16:34;;;;;;;25.37;15.57;;;8.80;99.90;;;;;;10394388;28;20199;-88
2021/12/06 12:21:41;;;;;;;15.00;10.03;;;9.40;99.90;;;;;;10226636;28;20265;-87
2021/12/06 12:26:55;;;;;;;15.67;10.17;;;10.20;99.90;;;;;;10284306;28;20225;-86
2021/12/06 12:32:05;;;;;;;11.90;8.13;;;9.10;99.90;;;;;;10213150;29;20218;-86
2021/12/06 12:37:10;;;;;;;12.37;8.60;;;8.20;99.90;;;;;;10237203;28;20286;-86
2021/12/06 12:42:17;;;;;;;15.03;10.87;;;9.30;99.90;;;;;;10236105;28;20634;-86
2021/12/06 12:47:26;;;;;;;12.13;8.53;;;7.40;99.90;;;;;;10236523;28;20237;-86
2021/12/06 12:52:40;;;;;;;14.83;10.00;;;7.80;99.90;;;;;;10259619;28;20243;-87
2021/12/06 12:57:43;;;;;;;17.20;9.97;;;6.10;97.70;;;;;;10379624;28;20636;-86
2021/12/06 13:02:46;;;;;;;15.53;10.97;;;8.60;99.90;;;;;;10399245;28;20766;-87
2021/12/06 13:07:50;;;;;;;18.67;12.73;;;5.50;99.90;;;;;;10401642;28;20254;-87
2021/12/06 13:12:54;;;;;;;18.87;11.83;;;4.80;96.80;;;;;;10385255;28;20274;-85
2021/12/06 13:17:57;;;;;;;20.67;12.73;;;5.60;99.90;;;;;;10403125;28;20289;-86
2021/12/06 13:23:09;;;;;;;13.47;9.63;;;5.40;99.90;;;;;;10397472;28;20714;-88
2021/12/06 13:28:57;;;;;;;20.37;12.13;;;7.00;99.90;;;;;;10373627;28;20200;-88
2021/12/06 13:34:28;;;;;;;16.53;9.87;;;5.00;98.20;;;;;;10238738;28;20854;-86
2021/12/06 13:39:38;;;;;;;23.07;12.93;;;6.10;99.90;;;;;;10237901;29;20290;-87
2021/12/06 13:44:46;;;;;;;39.80;18.47;;;5.20;99.90;;;;;;10204150;28;20250;-87
2021/12/06 13:50:11;;;;;;;37.20;18.33;;;6.90;99.90;;;;;;10221163;28;20238;-87
2021/12/06 13:55:25;;;;;;;13.77;8.57;;;7.40;93.40;;;;;;10221288;28;20305;-86
2021/12/06 14:00:42;;;;;;;19.87;11.63;;;9.10;99.90;;;;;;10236432;29;20812;-86
2021/12/06 14:05:47;;;;;;;19.27;11.00;;;8.50;99.90;;;;;;10206326;29;20234;-87
2021/12/06 14:10:55;;;;;;;16.97;11.83;;;8.20;99.90;;;;;;10350634;28;20628;-87
2021/12/06 14:16:07;;;;;;;14.27;9.30;;;8.60;92.20;;;;;;10392349;28;20232;-86
2021/12/06 14:21:09;;;;;;;19.70;11.97;;;7.70;99.90;;;;;;10374387;28;20782;-86
2021/12/06 14:26:12;;;;;;;18.00;10.23;;;7.80;93.60;;;;;;10391934;28;20243;-87
2021/12/06 14:31:14;;;;;;;16.53;10.50;;;8.60;99.90;;;;;;10402089;28;20672;-87
2021/12/06 14:36:22;;;;;;;15.67;11.27;;;7.70;99.90;;;;;;10409300;28;20227;-87
2021/12/06 14:41:55;;;;;;;13.33;8.33;;;8.10;95.90;;;;;;10395039;28;20274;-87
2021/12/06 14:46:58;;;;;;;13.30;9.10;;;7.50;99.90;;;;;;10408972;28;20709;-87
2021/12/06 15:32:54;;;;;;;16.07;9.57;;;6.70;99.90;;;;;;10197386;23;20639;-83
2021/12/06 15:37:57;;;;;;;16.07;10.20;;;6.60;99.90;;;;;;10237352;29;20295;-82
2021/12/06 15:43:06;;;;;;;14.20;9.80;;;6.20;90.80;;;;;;10227138;29;20261;-82
2021/12/06 15:48:10;;;;;;;12.10;7.83;;;6.20;88.10;;;;;;10238132;29;20266;-83
2021/12/06 15:53:15;;;;;;;13.70;8.87;;;7.70;99.90;;;;;;10239298;29;20231;-82
2021/12/06 15:58:20;;;;;;;11.23;7.57;;;9.60;98.50;;;;;;10221359;29;20681;-82
2021/12/06 16:03:28;;;;;;;13.70;9.77;;;7.50;99.90;;;;;;10202676;28;20708;-82
2021/12/06 16:08:37;;;;;;;11.00;7.00;;;8.30;97.20;;;;;;10224416;29;20296;-82
2021/12/06 16:13:44;;;;;;;11.57;7.00;;;10.20;99.90;;;;;;10236411;29;20709;-82
2021/12/06 16:18:48;;;;;;;8.27;5.47;;;9.80;99.90;;;;;;10220546;29;20261;-83
2021/12/06 16:23:58;;;;;;;13.80;9.30;;;9.60;99.90;;;;;;10221665;29;20487;-83
2021/12/06 16:29:28;;;;;;;8.17;6.00;;;9.80;84.90;;;;;;10213904;23;20377;-83
2021/12/06 16:34:37;;;;;;;8.17;5.87;;;11.10;99.90;;;;;;10188602;28;20300;-83
2021/12/06 16:39:51;;;;;;;10.30;7.07;;;11.70;99.90;;;;;;10208249;29;20231;-83
2021/12/06 16:45:01;;;;;;;9.17;6.40;;;11.20;99.90;;;;;;10232525;29;20264;-83
2021/12/06 16:50:04;;;;;;;8.47;5.40;;;11.20;99.90;;;;;;10235207;29;20238;-82
2021/12/06 16:55:23;;;;;;;10.77;6.47;;;12.00;99.90;;;;;;10236258;29;20243;-82
2021/12/06 17:00:31;;;;;;;8.03;6.13;;;12.20;99.90;;;;;;10220982;29;20242;-83
2021/12/06 17:05:55;;;;;;;11.17;6.53;;;12.30;99.90;;;;;;10221345;29;20297;-82
2021/12/06 17:11:08;;;;;;;9.10;5.67;;;12.20;99.90;;;;;;10204176;29;20301;-82
2021/12/06 17:16:30;;;;;;;7.30;5.33;;;12.20;99.90;;;;;;10239989;28;20237;-82
2021/12/06 17:21:33;;;;;;;9.67;6.57;;;12.30;99.90;;;;;;10228722;29;20288;-83
2021/12/06 17:26:39;;;;;;;17.40;11.67;;;11.10;99.90;;;;;;10234086;28;20238;-87
2021/12/06 17:31:49;;;;;;;18.77;12.10;;;3.20;90.20;;;;;;10220901;29;20309;-87
2021/12/06 17:37:01;;;;;;;21.37;11.97;;;0.70;99.90;;;;;;10232281;29;20224;-87
2021/12/06 17:42:04;;;;;;;22.27;13.73;;;0.10;99.90;;;;;;9878969;29;9999814;-88
2021/12/06 17:47:07;;;;;;;18.27;12.20;;;;;;;;;;10213775;28;20318;-87
2021/12/06 17:52:10;;;;;;;21.27;12.97;;;-0.30;99.90;;;;;;10232116;28;20369;-87
2021/12/06 17:57:19;;;;;;;18.90;11.93;;;-0.40;99.90;;;;;;10220115;29;20663;-87
2021/12/06 18:02:24;;;;;;;23.57;13.60;;;-0.50;99.90;;;;;;10239822;29;20313;-87
2021/12/06 18:07:27;;;;;;;20.63;12.87;;;-0.50;99.90;;;;;;10208514;29;20346;-86
2021/12/06 18:12:30;;;;;;;19.87;12.17;;;-0.50;99.90;;;;;;10230841;29;20294;-87
2021/12/06 18:17:33;;;;;;;27.30;14.93;;;-0.60;99.90;;;;;;10222445;29;21113;-87
2021/12/06 18:22:36;;;;;;;21.77;13.13;;;-0.60;99.90;;;;;;10208728;29;20349;-86
2021/12/06 18:27:39;;;;;;;17.83;9.13;;;3.00;99.90;;;;;;10267363;28;20329;-86
2021/12/06 18:32:43;;;;;;;14.67;8.57;;;3.40;99.90;;;;;;10228703;29;20328;-87
2021/12/06 18:37:48;;;;;;;17.73;11.47;;;5.90;99.90;;;;;;10241975;29;20274;-85
2021/12/06 18:42:53;;;;;;;14.37;8.57;;;6.40;92.20;;;;;;10217472;29;20671;-84
2021/12/06 18:48:00;;;;;;;13.27;8.53;;;8.20;98.50;;;;;;10224899;29;20282;-82
2021/12/06 18:53:08;;;;;;;13.13;8.00;;;9.10;95.20;;;;;;10224147;29;20332;-82
2021/12/06 18:58:11;;;;;;;9.57;6.93;;;9.70;94.50;;;;;;10241937;29;20285;-82
2021/12/06 19:03:14;;;;;;;14.30;8.70;;;10.00;95.60;;;;;;10218802;29;20266;-82
2021/12/06 19:08:17;;;;;;;10.57;7.20;;;10.60;95.60;;;;;;10219328;28;20245;-82
2021/12/06 19:13:20;;;;;;;9.97;7.67;;;11.00;95.40;;;;;;10224697;29;20282;-83
2021/12/06 19:18:23;;;;;;;14.17;9.63;;;11.20;95.80;;;;;;10227891;29;20664;-82
2021/12/06 19:23:26;;;;;;;12.33;7.30;;;11.00;90.20;;;;;;10256679;28;20261;-83
2021/12/06 19:28:32;;;;;;;15.23;9.97;;;11.00;97.70;;;;;;10243036;28;20802;-83
2021/12/06 19:33:34;;;;;;;10.07;7.40;;;10.90;94.70;;;;;;10243267;28;20238;-82
2021/12/06 19:38:39;;;;;;;14.43;9.43;;;11.20;99.40;;;;;;10261716;28;20285;-83
2021/12/06 19:43:43;;;;;;;9.67;6.80;;;9.60;99.90;;;;;;10239721;28;20314;-83
2021/12/06 19:48:46;;;;;;;16.53;11.33;;;11.20;99.90;;;;;;10256992;28;20234;-83
2021/12/06 19:53:49;;;;;;;11.63;7.73;;;10.80;96.40;;;;;;10262936;28;20688;-83
2021/12/06 19:58:52;;;;;;;19.87;13.00;;;11.40;99.90;;;;;;10228981;28;20970;-83
2021/12/06 20:03:55;;;;;;;10.93;7.10;;;10.40;99.90;;;;;;10263878;28;20285;-83
2021/12/06 20:08:58;;;;;;;9.53;6.53;;;10.90;99.90;;;;;;10251753;28;20329;-83
2021/12/06 20:14:00;;;;;;;20.17;12.33;;;10.90;99.90;;;;;;10245481;28;20235;-83
2021/12/06 20:19:17;;;;;;;16.73;11.70;;;10.20;81.60;;;;;;10217825;29;20233;-83
2021/12/06 20:24:20;;;;;;;8.33;6.20;;;10.60;99.00;;;;;;10243596;29;20309;-83
2021/12/06 20:29:23;;;;;;;11.57;7.53;;;11.10;99.90;;;;;;10243564;29;20984;-83
2021/12/06 20:34:26;;;;;;;12.40;8.27;;;11.80;99.90;;;;;;10221827;29;20291;-83
2021/12/06 20:39:29;;;;;;;17.27;12.50;;;11.80;95.10;;;;;;10232206;29;20236;-83
2021/12/06 20:44:33;;;;;;;21.33;13.97;;;10.90;80.90;;;;;;10227069;28;20271;-83
2021/12/06 20:49:35;;;;;;;14.13;9.20;;;10.10;70.20;;;;;;10224681;29;20297;-83
2021/12/06 20:54:40;;;;;;;20.07;12.00;;;10.30;92.00;;;;;;10209165;29;20234;-83
2021/12/06 20:59:43;;;;;;;11.93;8.97;;;11.10;88.20;;;;;;10213446;29;20252;-83
2021/12/06 21:04:45;;;;;;;12.37;8.33;;;11.30;91.70;;;;;;10221545;29;20330;-83
2021/12/06 21:09:50;;;;;;;12.70;8.83;;;11.20;91.80;;;;;;10223292;29;20246;-83
2021/12/06 21:15:27;;;;;;;10.80;8.63;;;11.50;93.40;;;;;;10219061;29;20236;-83
2021/12/06 21:20:27;;;;;;;13.03;8.43;;;11.50;93.40;;;;;;10217498;29;20710;-83
2021/12/06 21:25:30;;;;;;;14.13;8.50;;;11.40;93.40;;;;;;10234401;29;20313;-84
2021/12/06 21:30:33;;;;;;;11.43;8.03;;;11.20;90.80;;;;;;10225266;29;20253;-83
2021/12/06 21:35:38;;;;;;;15.57;9.23;;;11.40;95.20;;;;;;10230188;28;20291;-83
2021/12/06 21:40:41;;;;;;;16.13;10.80;;;11.80;92.50;;;;;;10229642;29;20235;-84
2021/12/06 21:45:44;;;;;;;18.60;13.70;;;11.70;88.40;;;;;;10220965;29;20306;-84
2021/12/06 21:50:47;;;;;;;13.23;7.23;;;10.90;91.70;;;;;;10233656;29;20244;-83
2021/12/06 21:55:50;;;;;;;16.77;10.50;;;11.30;97.70;;;;;;10236869;29;20679;-83
2021/12/06 22:00:57;;;;;;;18.10;11.60;;;11.70;96.30;;;;;;10224567;29;20271;-83
2021/12/06 22:06:01;;;;;;;12.73;8.20;;;11.20;90.10;;;;;;10249460;28;20276;-83
2021/12/06 22:11:03;;;;;;;20.03;11.23;;;11.50;96.20;;;;;;10251025;29;20275;-83
2021/12/06 22:16:07;;;;;;;10.30;7.97;;;12.00;96.00;;;;;;10276541;29;20225;-84
2021/12/06 22:21:13;;;;;;;14.33;10.03;;;11.60;97.50;;;;;;10297144;28;20227;-88
2021/12/06 22:26:17;;;;;;;8.07;6.90;;;12.00;88.20;;;;;;10260127;28;20233;-89
2021/12/06 22:31:21;;;;;;;17.50;12.00;;;12.20;96.10;;;;;;10243164;29;20240;-86
2021/12/06 22:36:24;;;;;;;14.27;8.03;;;11.50;95.60;;;;;;10226014;29;20307;-88
2021/12/06 22:41:27;;;;;;;11.97;7.53;;;11.80;97.20;;;;;;10233311;29;20270;-88
2021/12/06 22:46:30;;;;;;;21.83;12.53;;;10.80;99.20;;;;;;10231591;29;20274;-88
2021/12/06 22:51:34;;;;;;;12.37;8.63;;;9.20;97.70;;;;;;10247114;28;20250;-89
2021/12/06 22:56:36;;;;;;;15.23;9.63;;;10.60;99.90;;;;;;10220928;28;20245;-88
2021/12/06 23:01:40;;;;;;;9.47;6.73;;;11.20;99.90;;;;;;10204735;29;20275;-88
2021/12/06 23:06:43;;;;;;;12.00;7.70;;;12.00;98.20;;;;;;10245351;29;20311;-86
2021/12/06 23:11:46;;;;;;;12.00;8.03;;;12.00;98.20;;;;;;10234489;29;20250;-89
2021/12/06 23:16:48;;;;;;;11.93;8.20;;;12.10;98.00;;;;;;10238567;28;20248;-89
2021/12/06 23:21:51;;;;;;;15.90;9.33;;;12.30;97.70;;;;;;10223587;29;20237;-87
2021/12/06 23:26:56;;;;;;;29.67;16.67;;;12.20;99.90;;;;;;10215940;28;20239;-88
2021/12/06 23:31:59;;;;;;;15.70;9.40;;;11.00;92.70;;;;;;10241527;29;20319;-89
2021/12/06 23:37:03;;;;;;;14.10;10.37;;;11.50;99.90;;;;;;10230487;29;20237;-90
2021/12/06 23:47:28;;;;;;;10.97;7.17;;;12.00;99.90;;;;;;10163691;29;20246;-89
2021/12/06 23:52:31;;;;;;;11.93;8.70;;;12.10;99.90;;;;;;10147289;29;20318;-89
2021/12/06 23:57:33;;;;;;;9.97;6.70;;;12.50;99.90;;;;;;10110534;29;20337;-89
